Time;durP1;ratioP1;P1;durP2;ratioP2;P2;SDS_P1;SDS_P2;PMS_P1;PMS_P2;Temp;Humidity;BMP_temperature;BMP_pressure;BME280_temperature;BME280_humidity;BME280_pressure;Samples;Min_cycle;Max_cycle;Signal;HPM_P1;HPM_P2
2024/04/23 00:02:14;;;;;;;1.35;0.50;;;;;;;10.46;100.00;101750.66;4749824;30;20042;-82
2024/04/23 00:04:40;;;;;;;2.88;0.50;;;;;;;10.47;100.00;101757.63;4752681;30;20031;-82
2024/04/23 00:07:06;;;;;;;1.17;0.63;;;;;;;10.40;100.00;101754.59;4747374;30;20039;-80
2024/04/23 00:09:31;;;;;;;1.25;0.50;;;;;;;10.40;100.00;101758.06;4752861;30;20039;-83
2024/04/23 00:11:57;;;;;;;1.08;0.50;;;;;;;10.40;100.00;101765.16;4776168;30;20051;-81
2024/04/23 00:14:23;;;;;;;2.10;0.60;;;;;;;10.40;100.00;101765.16;4780793;30;20096;-82
2024/04/23 00:16:56;;;;;;;3.30;0.70;;;;;;;10.38;100.00;101759.94;4764265;29;20035;-81
2024/04/23 00:19:22;;;;;;;2.25;0.60;;;;;;;10.27;100.00;101760.72;4749532;30;20035;-81
2024/04/23 00:21:48;;;;;;;1.70;0.60;;;;;;;10.29;100.00;101765.91;4782823;29;20050;-86
2024/04/23 00:24:14;;;;;;;1.25;0.80;;;;;;;10.28;100.00;101762.44;4758160;30;20043;-80
2024/04/23 00:26:39;;;;;;;1.45;0.60;;;;;;;10.27;100.00;101765.19;4751407;30;20055;-85
2024/04/23 00:29:05;;;;;;;1.40;0.60;;;;;;;10.24;100.00;101760.94;4746588;30;20047;-88
2024/04/23 00:31:32;;;;;;;1.42;0.52;;;;;;;10.27;100.00;101757.25;4751254;30;20498;-86
2024/04/23 00:34:01;;;;;;;2.30;0.60;;;;;;;10.28;100.00;101751.88;4780096;29;20528;-88
2024/04/23 00:36:52;;;;;;;1.10;0.57;;;;;;;10.35;100.00;101752.25;4766870;30;20054;-85
2024/04/23 00:39:21;;;;;;;0.90;0.70;;;;;;;10.27;100.00;101747.50;4763343;30;20070;-86
2024/04/23 00:41:47;;;;;;;0.95;0.40;;;;;;;10.24;100.00;101746.91;4795854;29;20122;-81
2024/04/23 00:44:15;;;;;;;1.80;0.93;;;;;;;10.17;100.00;101746.50;4763611;30;20035;-82
2024/04/23 00:46:48;;;;;;;1.98;0.65;;;;;;;10.15;100.00;101743.09;4767899;29;20095;-81
2024/04/23 00:49:16;;;;;;;1.60;0.40;;;;;;;10.14;100.00;101744.06;4770002;30;20043;-81
2024/04/23 00:51:53;;;;;;;2.75;0.70;;;;;;;10.13;100.00;101739.75;4788284;29;20504;-84
2024/04/23 00:54:25;;;;;;;5.97;0.70;;;;;;;10.13;100.00;101737.09;4747142;30;20108;-86
2024/04/23 00:56:54;;;;;;;1.60;0.82;;;;;;;10.16;100.00;101736.91;4764264;29;20114;-84
2024/04/23 00:59:20;;;;;;;1.00;0.75;;;;;;;10.14;100.00;101736.16;4773934;30;20200;-82
2024/04/23 01:01:48;;;;;;;1.90;0.60;;;;;;;10.11;100.00;101729.28;4767191;30;20074;-84
2024/04/23 01:04:14;;;;;;;1.80;0.60;;;;;;;10.13;100.00;101730.00;4767270;30;20039;-83
2024/04/23 01:06:40;;;;;;;2.65;0.90;;;;;;;10.11;100.00;101724.00;4768159;30;20088;-82
2024/04/23 01:09:06;;;;;;;2.58;0.70;;;;;;;10.11;100.00;101728.44;4781330;29;20047;-88
2024/04/23 01:11:34;;;;;;;0.70;0.50;;;;;;;10.10;100.00;101724.94;4762066;30;20070;-81
2024/04/23 01:14:04;;;;;;;2.55;0.60;;;;;;;10.18;100.00;101729.69;4749326;30;20036;-83
2024/04/23 01:16:34;;;;;;;2.38;0.63;;;;;;;10.17;100.00;101726.22;4775010;30;20043;-88
2024/04/23 01:19:02;;;;;;;4.03;1.00;;;;;;;10.18;100.00;101727.88;4795670;29;20064;-86
2024/04/23 01:21:52;;;;;;;0.80;0.50;;;;;;;10.22;100.00;101725.03;4771217;29;20125;-90
2024/04/23 01:24:23;;;;;;;5.88;0.90;;;;;;;10.21;100.00;101724.19;4784643;30;20035;-85
2024/04/23 01:26:50;;;;;;;2.42;0.70;;;;;;;10.20;100.00;101724.28;4753710;30;20043;-87
2024/04/23 01:29:15;;;;;;;0.70;0.45;;;;;;;10.17;100.00;101723.56;4768368;30;20080;-89
2024/04/23 01:31:42;;;;;;;1.83;0.80;;;;;;;10.19;100.00;101720.81;4740560;30;20123;-82
2024/04/23 01:34:08;;;;;;;3.03;0.73;;;;;;;10.20;100.00;101730.41;4749792;30;20050;-84
2024/04/23 01:36:34;;;;;;;1.95;0.90;;;;;;;10.19;100.00;101726.09;4749042;30;20040;-87
2024/04/23 01:39:00;;;;;;;3.40;0.80;;;;;;;10.20;100.00;101719.00;4773203;30;20077;-89
2024/04/23 01:41:26;;;;;;;1.80;0.50;;;;;;;10.18;100.00;101717.31;4772038;29;20131;-82
2024/04/23 01:43:53;;;;;;;1.38;0.90;;;;;;;10.20;100.00;101719.00;4765549;30;20059;-82
2024/04/23 01:46:20;;;;;;;1.50;0.70;;;;;;;10.15;100.00;101717.53;4752695;30;20850;-81
2024/04/23 01:48:49;;;;;;;0.80;0.60;;;;;;;10.16;100.00;101715.75;4767640;30;20509;-80
2024/04/23 01:51:15;;;;;;;2.30;0.70;;;;;;;10.21;100.00;101715.41;4784325;29;20044;-84
2024/04/23 01:53:41;;;;;;;1.85;1.27;;;;;;;10.17;100.00;101707.72;4770477;30;20050;-87
2024/04/23 01:56:07;;;;;;;1.73;0.80;;;;;;;10.19;100.00;101718.19;4737832;30;20043;-87
2024/04/23 01:58:33;;;;;;;1.27;0.40;;;;;;;10.17;100.00;101704.22;4758027;29;20039;-87
2024/04/23 02:01:00;;;;;;;1.73;0.70;;;;;;;10.16;100.00;101705.19;4749232;30;20105;-81
2024/04/23 02:03:26;;;;;;;2.60;0.65;;;;;;;10.18;100.00;101713.81;4779781;29;20497;-82
2024/04/23 02:05:56;;;;;;;2.53;0.60;;;;;;;10.24;100.00;101705.47;4753567;30;20035;-88
2024/04/23 02:08:22;;;;;;;5.43;0.70;;;;;;;10.17;100.00;101704.22;4762465;30;20031;-87
2024/04/23 02:10:48;;;;;;;0.85;0.60;;;;;;;10.15;100.00;101714.03;4787931;30;20042;-86
2024/04/23 02:13:14;;;;;;;1.45;0.70;;;;;;;10.11;100.00;101708.16;4786524;30;20226;-86
2024/04/23 02:15:40;;;;;;;1.85;0.55;;;;;;;10.05;100.00;101703.28;4768844;30;20076;-87
2024/04/23 02:18:06;;;;;;;0.90;0.50;;;;;;;10.09;100.00;101706.56;4781500;29;20135;-87
2024/04/23 02:20:31;;;;;;;3.72;0.77;;;;;;;10.08;100.00;101702.25;4772088;30;20385;-88
2024/04/23 02:22:57;;;;;;;2.17;0.55;;;;;;;10.07;100.00;101701.38;4780163;29;20047;-81
2024/04/23 02:25:23;;;;;;;3.00;0.50;;;;;;;10.06;100.00;101702.34;4779491;29;20548;-80
2024/04/23 02:27:49;;;;;;;4.78;0.63;;;;;;;9.99;100.00;101701.09;4752287;30;20051;-81
2024/04/23 02:30:15;;;;;;;1.10;0.68;;;;;;;10.00;100.00;101698.34;4782874;29;20043;-81
2024/04/23 02:32:40;;;;;;;4.07;0.60;;;;;;;10.05;100.00;101700.66;4758459;30;20043;-85
2024/04/23 02:35:06;;;;;;;1.90;0.60;;;;;;;10.07;100.00;101698.75;4754882;30;20060;-86
2024/04/23 02:37:32;;;;;;;3.45;0.50;;;;;;;10.08;100.00;101695.16;4772354;30;20062;-89
2024/04/23 02:39:58;;;;;;;2.60;0.65;;;;;;;10.09;100.00;101688.94;4770433;30;20543;-88
2024/04/23 02:42:23;;;;;;;3.60;0.38;;;;;;;10.10;100.00;101689.75;4784810;29;20605;-82
2024/04/23 02:44:49;;;;;;;2.78;0.60;;;;;;;10.10;100.00;101680.03;4779743;29;20040;-80
2024/04/23 02:47:15;;;;;;;2.60;0.50;;;;;;;10.10;100.00;101681.81;4770194;30;20047;-86
2024/04/23 02:49:41;;;;;;;1.77;0.50;;;;;;;10.12;100.00;101682.56;4785977;30;20485;-88
2024/04/23 02:52:07;;;;;;;2.05;0.70;;;;;;;10.09;100.00;101680.16;4786464;29;20038;-82
2024/04/23 02:54:33;;;;;;;4.60;0.77;;;;;;;10.01;100.00;101673.63;4785219;29;20031;-83
2024/04/23 02:56:58;;;;;;;2.92;0.50;;;;;;;10.01;100.00;101671.00;4761348;30;20047;-90
2024/04/23 02:59:24;;;;;;;1.35;0.65;;;;;;;10.02;100.00;101670.03;4782895;30;20040;-85
2024/04/23 03:02:03;;;;;;;1.33;0.60;;;;;;;10.03;100.00;101669.06;4787518;29;20374;-90
2024/04/23 03:04:29;;;;;;;2.70;0.60;;;;;;;9.98;100.00;101673.00;4784052;30;20039;-89
2024/04/23 03:06:55;;;;;;;1.10;0.52;;;;;;;9.97;100.00;101669.50;4774321;30;20045;-88
2024/04/23 03:09:21;;;;;;;3.03;0.60;;;;;;;9.96;100.00;101669.63;4758378;29;20731;-84
2024/04/23 03:11:51;;;;;;;1.45;0.60;;;;;;;10.01;100.00;101670.13;4776946;29;20046;-88
2024/04/23 03:14:17;;;;;;;0.70;0.50;;;;;;;9.96;100.00;101664.31;4783501;30;20141;-89
2024/04/23 03:16:42;;;;;;;0.90;0.50;;;;;;;9.96;100.00;101669.63;4766114;29;20494;-82
2024/04/23 03:19:08;;;;;;;7.63;0.55;;;;;;;9.93;100.00;101668.91;4788436;29;20039;-88
2024/04/23 03:21:34;;;;;;;2.38;0.52;;;;;;;9.91;100.00;101672.59;4777556;29;20398;-83
2024/04/23 03:24:00;;;;;;;2.30;0.57;;;;;;;9.91;100.00;101675.22;4778841;30;20039;-81
2024/04/23 03:26:25;;;;;;;2.50;0.60;;;;;;;9.92;100.00;101674.28;4760799;29;20051;-82
2024/04/23 03:28:51;;;;;;;1.25;0.40;;;;;;;9.89;100.00;101664.78;4761089;30;20096;-82
2024/04/23 03:31:17;;;;;;;2.03;0.70;;;;;;;9.91;100.00;101669.94;4767369;30;20425;-83
2024/04/23 03:33:43;;;;;;;3.03;0.40;;;;;;;9.89;100.00;101674.50;4782764;29;20127;-82
2024/04/23 03:36:09;;;;;;;2.95;0.70;;;;;;;9.89;100.00;101669.22;4746339;30;20043;-84
2024/04/23 03:38:34;;;;;;;1.42;0.60;;;;;;;9.87;100.00;101671.13;4768808;30;20059;-86
2024/04/23 03:41:00;;;;;;;2.95;0.50;;;;;;;9.87;100.00;101663.19;4753950;30;20035;-87
2024/04/23 03:43:26;;;;;;;1.42;0.57;;;;;;;9.80;100.00;101660.16;4785069;29;20059;-88
2024/04/23 03:45:51;;;;;;;5.15;0.80;;;;;;;9.82;100.00;101662.69;4754613;30;20039;-82
2024/04/23 03:48:17;;;;;;;1.08;0.50;;;;;;;9.82;100.00;101660.03;4735507;30;20398;-82
2024/04/23 03:50:43;;;;;;;3.42;0.98;;;;;;;9.76;100.00;101663.97;4788583;29;20035;-89
2024/04/23 03:53:09;;;;;;;1.33;0.55;;;;;;;9.80;100.00;101666.28;4765870;29;20047;-85
2024/04/23 03:55:35;;;;;;;0.90;0.63;;;;;;;9.79;100.00;101664.56;4767142;30;20051;-83
2024/04/23 03:58:00;;;;;;;2.78;0.63;;;;;;;9.74;100.00;101663.22;4767719;30;20047;-80
2024/04/23 04:00:27;;;;;;;2.75;0.60;;;;;;;9.74;100.00;101656.16;4764539;30;20036;-81
2024/04/23 04:08:21;;;;;;;1.80;0.88;;;;;;;9.71;100.00;101650.25;4792225;29;20049;-86
2024/04/23 04:10:47;;;;;;;1.83;0.85;;;;;;;9.72;100.00;101654.56;4768298;30;20035;-82
2024/04/23 04:13:13;;;;;;;1.85;0.88;;;;;;;9.72;100.00;101652.78;4779836;29;20039;-79
2024/04/23 04:15:38;;;;;;;2.15;0.95;;;;;;;9.71;100.00;101650.25;4750834;30;20043;-82
2024/04/23 04:18:04;;;;;;;3.70;0.82;;;;;;;9.66;100.00;101655.84;4749669;30;20044;-88
2024/04/23 04:20:30;;;;;;;2.78;0.80;;;;;;;9.65;100.00;101652.34;4768674;29;20039;-85
2024/04/23 04:22:56;;;;;;;4.07;1.45;;;;;;;9.64;100.00;101661.25;4764930;29;20459;-83
2024/04/23 04:25:22;;;;;;;0.85;0.65;;;;;;;9.64;100.00;101660.38;4730741;30;20063;-86
2024/04/23 04:27:47;;;;;;;6.05;1.10;;;;;;;9.64;100.00;101658.59;4772351;30;20046;-87
2024/04/23 04:30:13;;;;;;;1.33;0.80;;;;;;;9.65;100.00;101655.00;4783177;29;20074;-86
2024/04/23 04:32:39;;;;;;;3.13;0.88;;;;;;;9.68;100.00;101653.94;4773154;30;20192;-80
2024/04/23 04:35:05;;;;;;;5.32;1.30;;;;;;;9.69;100.00;101655.63;4762685;30;20126;-82
2024/04/23 04:37:34;;;;;;;1.80;0.90;;;;;;;9.73;100.00;101664.19;4786761;29;20504;-88
2024/04/23 04:40:00;;;;;;;4.15;1.30;;;;;;;9.65;100.00;101662.09;4788432;29;20144;-87
2024/04/23 04:42:26;;;;;;;3.58;1.10;;;;;;;9.67;100.00;101668.09;4771758;29;20074;-87
2024/04/23 04:44:51;;;;;;;3.15;1.02;;;;;;;9.65;100.00;101668.19;4774513;29;20043;-90
2024/04/23 04:47:17;;;;;;;3.95;0.90;;;;;;;9.66;100.00;101664.63;4777896;29;20043;-82
2024/04/23 04:49:43;;;;;;;2.80;0.95;;;;;;;9.68;100.00;101667.97;4769195;29;20134;-82
2024/04/23 04:52:09;;;;;;;3.35;0.93;;;;;;;9.65;100.00;101662.09;4772399;29;20034;-89
2024/04/23 04:54:34;;;;;;;4.15;0.90;;;;;;;9.64;100.00;101669.16;4785954;29;20039;-86
2024/04/23 04:57:01;;;;;;;3.28;1.70;;;;;;;9.61;100.00;101661.44;4788968;29;20047;-89
2024/04/23 04:59:27;;;;;;;2.45;0.80;;;;;;;9.63;100.00;101669.25;4775681;29;20042;-88
2024/04/23 05:01:53;;;;;;;1.48;0.90;;;;;;;9.63;100.00;101674.53;4771823;29;20042;-81
2024/04/23 05:04:18;;;;;;;1.25;0.82;;;;;;;9.63;100.00;101674.53;4767814;30;20047;-80
2024/04/23 05:06:44;;;;;;;2.85;0.82;;;;;;;9.63;100.00;101670.13;4767023;29;20046;-81
2024/04/23 05:09:10;;;;;;;2.65;1.00;;;;;;;9.66;100.00;101672.53;4769432;29;20043;-80
2024/04/23 05:11:36;;;;;;;3.30;1.05;;;;;;;9.66;100.00;101675.19;4766995;29;20111;-80
2024/04/23 05:14:02;;;;;;;2.38;0.95;;;;;;;9.68;100.00;101673.25;4768525;29;20049;-79
2024/04/23 05:16:28;;;;;;;5.10;0.82;;;;;;;9.70;100.00;101673.16;4781345;29;20117;-87
2024/04/23 05:18:53;;;;;;;3.47;0.88;;;;;;;9.70;100.00;101680.25;4784532;29;20043;-86
2024/04/23 05:21:19;;;;;;;3.97;0.80;;;;;;;9.66;100.00;101679.59;4754980;30;20039;-81
2024/04/23 05:23:45;;;;;;;2.80;0.80;;;;;;;9.66;100.00;101677.81;4751583;29;20054;-83
2024/04/23 05:26:11;;;;;;;3.67;1.20;;;;;;;9.62;100.00;101675.50;4764250;29;20166;-86
2024/04/23 05:28:36;;;;;;;1.02;0.85;;;;;;;9.62;100.00;101673.69;4755011;30;20035;-85
2024/04/23 05:33:47;;;;;;;3.38;0.90;;;;;;;9.62;100.00;101683.44;4770264;29;20123;-83
2024/04/23 05:36:12;;;;;;;2.63;0.93;;;;;;;9.64;100.00;101686.78;4787470;29;20497;-84
2024/04/23 05:38:38;;;;;;;1.20;0.70;;;;;;;9.59;100.00;101683.63;4770260;29;20151;-86
2024/04/23 05:41:04;;;;;;;1.10;0.95;;;;;;;9.59;100.00;101683.63;4754743;29;20095;-80
2024/04/23 05:43:30;;;;;;;1.70;0.70;;;;;;;9.54;100.00;101690.06;4783572;29;20042;-82
2024/04/23 05:45:56;;;;;;;3.17;1.20;;;;;;;9.50;100.00;101682.47;4781908;29;20123;-84
2024/04/23 05:48:59;;;;;;;2.47;1.00;;;;;;;9.55;100.00;101685.63;4797743;29;20517;-79
2024/04/23 05:52:21;;;;;;;3.22;0.82;;;;;;;9.53;100.00;101683.09;4797140;29;20139;-83
2024/04/23 05:55:29;;;;;;;5.45;1.00;;;;;;;9.52;100.00;101685.84;4803267;29;20103;-89
2024/04/23 05:57:55;;;;;;;3.13;1.00;;;;;;;9.51;100.00;101684.16;4780405;29;20103;-80
2024/04/23 06:00:21;;;;;;;3.70;0.90;;;;;;;9.53;100.00;101684.91;4763240;29;20050;-82
2024/04/23 06:02:47;;;;;;;2.25;1.05;;;;;;;9.51;100.00;101685.00;4755956;29;20042;-81
2024/04/23 06:05:13;;;;;;;4.05;0.98;;;;;;;9.52;100.00;101684.03;4748427;29;20438;-81
2024/04/23 06:07:38;;;;;;;3.45;1.00;;;;;;;9.48;100.00;101676.44;4785642;29;20087;-84
2024/04/23 06:10:05;;;;;;;2.17;0.80;;;;;;;9.52;100.00;101677.94;4788017;29;20036;-87
2024/04/23 06:12:30;;;;;;;1.13;0.82;;;;;;;9.52;100.00;101677.94;4776906;29;20051;-85
2024/04/23 06:14:56;;;;;;;2.55;0.90;;;;;;;9.51;100.00;101679.72;4772523;29;20038;-83
2024/04/23 06:17:24;;;;;;;3.17;0.70;;;;;;;9.49;100.00;101675.50;4771617;29;20050;-86
2024/04/23 06:19:51;;;;;;;8.50;1.00;;;;;;;9.49;100.00;101678.16;4768967;29;20034;-88
2024/04/23 06:22:17;;;;;;;1.27;0.80;;;;;;;9.48;100.00;101679.09;4782642;29;20054;-86
2024/04/23 06:24:43;;;;;;;1.55;0.73;;;;;;;9.46;100.00;101673.09;4801166;29;20096;-84
2024/04/23 06:27:09;;;;;;;1.35;0.65;;;;;;;9.45;100.00;101676.66;4787689;29;20496;-88
2024/04/23 06:29:34;;;;;;;3.45;0.60;;;;;;;9.45;100.00;101674.03;4757634;29;20038;-82
2024/04/23 06:32:00;;;;;;;2.45;0.60;;;;;;;9.44;100.00;101673.19;4800318;29;20512;-82
2024/04/23 06:34:26;;;;;;;0.95;0.70;;;;;;;9.39;100.00;101670.88;4765768;29;20061;-82
2024/04/23 06:36:51;;;;;;;2.28;0.60;;;;;;;9.38;100.00;101676.25;4767377;29;20531;-84
2024/04/23 06:39:17;;;;;;;3.85;0.77;;;;;;;9.37;100.00;101675.41;4757478;29;20042;-84
2024/04/23 06:41:43;;;;;;;1.52;0.60;;;;;;;9.38;100.00;101682.38;4797293;29;20043;-87
2024/04/23 06:44:09;;;;;;;3.95;0.60;;;;;;;9.36;100.00;101686.06;4790394;29;20038;-86
2024/04/23 06:46:35;;;;;;;2.38;0.70;;;;;;;9.34;100.00;101680.91;4772074;29;20042;-88
2024/04/23 06:49:01;;;;;;;1.67;0.40;;;;;;;9.37;100.00;101670.13;4771459;29;20050;-85
2024/04/23 06:51:27;;;;;;;1.40;0.65;;;;;;;9.43;100.00;101680.25;4771987;29;20049;-88
2024/04/23 06:54:03;;;;;;;1.65;0.68;;;;;;;9.50;100.00;101674.56;4787593;29;20392;-91
2024/04/23 06:56:29;;;;;;;2.25;0.50;;;;;;;9.51;100.00;101676.22;4787667;29;20051;-84
2024/04/23 06:58:55;;;;;;;4.88;0.60;;;;;;;9.55;100.00;101678.56;4772373;29;20043;-89
2024/04/23 07:01:26;;;;;;;0.57;0.55;;;;;;;9.60;100.00;101675.63;4785410;29;20043;-89
2024/04/23 07:03:52;;;;;;;1.48;0.70;;;;;;;9.54;100.00;101674.22;4753570;30;20129;-88
2024/04/23 07:06:17;;;;;;;2.83;1.52;;;;;;;9.63;100.00;101687.75;4784061;29;20133;-83
2024/04/23 07:08:43;;;;;;;4.57;1.23;;;;;;;9.58;100.00;101680.16;4755194;29;20050;-82
2024/04/23 07:11:09;;;;;;;4.55;1.30;;;;;;;9.56;100.00;101679.41;4768609;29;20036;-88
2024/04/23 07:13:35;;;;;;;2.90;1.38;;;;;;;9.59;100.00;101683.63;4789334;29;20478;-85
2024/04/23 07:16:04;;;;;;;5.47;1.45;;;;;;;9.54;100.00;101673.38;4773345;29;20122;-84
2024/04/23 07:18:30;;;;;;;2.17;1.08;;;;;;;9.51;100.00;101671.81;4785489;29;20043;-85
2024/04/23 07:20:55;;;;;;;1.92;0.98;;;;;;;9.50;100.00;101674.56;4788121;29;20374;-79
2024/04/23 07:23:21;;;;;;;1.85;0.70;;;;;;;9.46;100.00;101673.91;4788214;29;20047;-83
2024/04/23 07:25:50;;;;;;;2.53;0.63;;;;;;;9.52;100.00;101677.94;4778609;29;20408;-86
2024/04/23 07:28:17;;;;;;;1.63;0.40;;;;;;;9.54;100.00;101676.00;4776051;29;20066;-86
2024/04/23 07:30:43;;;;;;;2.25;0.75;;;;;;;9.72;100.00;101670.41;4768762;29;20043;-86
2024/04/23 07:33:10;;;;;;;3.42;0.80;;;;;;;9.92;100.00;101675.13;4773511;29;20572;-84
2024/04/23 07:35:36;;;;;;;2.38;0.82;;;;;;;10.16;100.00;101679.59;4772521;29;20754;-83
2024/04/23 07:38:02;;;;;;;3.08;1.23;;;;;;;10.41;100.00;101680.47;4801468;29;20057;-83
2024/04/23 07:40:28;;;;;;;3.33;0.68;;;;;;;10.64;100.00;101674.44;4769420;29;20039;-83
2024/04/23 07:42:54;;;;;;;1.88;0.60;;;;;;;10.72;100.00;101676.53;4755780;29;20056;-83
2024/04/23 07:45:19;;;;;;;4.25;0.80;;;;;;;10.75;100.00;101677.13;4786525;29;20497;-83
2024/04/23 07:47:45;;;;;;;5.63;1.00;;;;;;;10.73;100.00;101679.06;4792247;29;20517;-85
2024/04/23 07:50:11;;;;;;;3.80;1.17;;;;;;;10.88;100.00;101685.00;4766927;29;20042;-83
2024/04/23 07:52:37;;;;;;;4.72;0.60;;;;;;;10.89;100.00;101681.38;4786698;29;20042;-82
2024/04/23 07:55:03;;;;;;;2.17;0.52;;;;;;;10.66;100.00;101686.59;4770255;29;20053;-83
2024/04/23 07:57:29;;;;;;;1.48;0.43;;;;;;;10.59;100.00;101693.28;4760673;29;20066;-82
2024/04/23 07:59:54;;;;;;;5.18;0.80;;;;;;;10.50;100.00;101691.31;4791846;29;20758;-84
2024/04/23 08:02:21;;;;;;;1.67;1.23;;;;;;;10.48;100.00;101691.44;4782540;29;20043;-81
2024/04/23 08:04:46;;;;;;;6.13;1.27;;;;;;;10.56;100.00;101692.69;4771138;29;20069;-86
2024/04/23 08:07:12;;;;;;;4.43;1.88;;;;;;;10.53;100.00;101686.66;4770987;29;20454;-85
2024/04/23 08:09:38;;;;;;;4.63;1.40;;;;;;;10.42;100.00;101689.22;4786809;29;20034;-85
2024/04/23 08:12:04;;;;;;;1.55;0.90;;;;;;;10.28;100.00;101688.44;4779067;29;20039;-81
2024/04/23 08:14:30;;;;;;;0.82;0.70;;;;;;;10.16;100.00;101690.16;4771488;29;20175;-84
2024/04/23 08:17:01;;;;;;;2.30;0.80;;;;;;;10.07;100.00;101690.81;4756280;29;20042;-82
2024/04/23 08:19:26;;;;;;;2.75;0.80;;;;;;;10.04;100.00;101691.91;4782644;29;20035;-81
2024/04/23 08:21:52;;;;;;;2.55;0.60;;;;;;;9.96;100.00;101686.31;4751363;29;20131;-83
2024/04/23 08:24:18;;;;;;;2.60;0.63;;;;;;;10.01;100.00;101693.91;4768853;29;20101;-81
2024/04/23 08:26:44;;;;;;;2.97;0.60;;;;;;;10.09;100.00;101691.56;4774533;29;20496;-88
2024/04/23 08:29:10;;;;;;;2.28;0.82;;;;;;;10.06;100.00;101681.22;4764701;30;20492;-81
2024/04/23 08:31:36;;;;;;;1.88;0.60;;;;;;;10.04;100.00;101691.91;4770985;29;20136;-84
2024/04/23 08:34:01;;;;;;;1.38;0.50;;;;;;;9.98;100.00;101692.34;4749474;29;20046;-84
2024/04/23 08:36:28;;;;;;;1.63;0.50;;;;;;;10.12;100.00;101699.28;4778593;29;20049;-81
2024/04/23 08:38:54;;;;;;;0.52;0.30;;;;;;;10.23;100.00;101687.06;4766988;30;20047;-85
2024/04/23 08:41:23;;;;;;;1.80;0.40;;;;;;;10.41;100.00;101691.03;4767942;30;20096;-87
2024/04/23 08:44:02;;;;;;;1.65;0.30;;;;;;;10.61;100.00;101686.09;4751188;30;20085;-85
2024/04/23 08:46:28;;;;;;;4.70;0.50;;;;;;;10.78;100.00;101678.72;4735069;30;20047;-85
2024/04/23 08:48:55;;;;;;;2.50;0.50;;;;;;;10.79;100.00;101685.69;4751570;30;20039;-83
2024/04/23 08:51:21;;;;;;;1.45;0.30;;;;;;;10.90;100.00;101679.59;4750361;30;20708;-88
2024/04/23 08:53:49;;;;;;;1.13;0.60;;;;;;;10.96;100.00;101673.81;4751962;30;20126;-84
2024/04/23 08:56:24;;;;;;;0.40;0.35;;;;;;;11.09;100.00;101665.81;4734550;30;20050;-85
2024/04/23 08:58:50;;;;;;;0.50;0.50;;;;;;;11.10;100.00;101680.72;4744932;30;20047;-82
2024/04/23 09:01:27;;;;;;;5.80;0.70;;;;;;;11.22;100.00;101678.94;4721318;30;20058;-90
2024/04/23 09:04:02;;;;;;;0.55;0.32;;;;;;;11.14;100.00;101676.03;4744928;30;20043;-93
2024/04/23 09:06:32;;;;;;;0.65;0.52;;;;;;;11.09;100.00;101659.66;4722424;30;20036;-94
2024/04/23 09:08:59;;;;;;;1.98;0.40;;;;;;;11.04;100.00;101679.38;4728178;30;20043;-91
2024/04/23 09:11:32;;;;;;;0.95;0.50;;;;;;;11.09;100.00;101670.25;4740459;30;20051;-92
2024/04/23 09:13:59;;;;;;;1.15;0.40;;;;;;;11.23;100.00;101667.38;4748963;30;20040;-95
2024/04/23 09:16:28;;;;;;;1.58;0.22;;;;;;;11.44;100.00;101657.88;4731027;30;20039;-91
2024/04/23 09:18:57;;;;;;;2.13;0.30;;;;;;;11.44;100.00;101668.47;4740843;30;20107;-93
2024/04/23 09:21:27;;;;;;;1.30;0.30;;;;;;;11.40;100.00;101675.84;4742169;30;20063;-95
2024/04/23 09:24:32;;;;;;;0.95;0.28;;;;;;;11.30;100.00;101681.00;4740319;30;20052;-94
2024/04/23 09:27:07;;;;;;;0.35;0.10;;;;;;;11.27;100.00;101678.59;4732066;30;20051;-94
2024/04/23 09:29:40;;;;;;;0.60;0.22;;;;;;;11.28;100.00;101674.97;4731659;30;20117;-93
2024/04/23 09:32:16;;;;;;;1.27;0.10;;;;;;;11.37;100.00;101671.59;4731737;30;20131;-91
2024/04/23 09:34:55;;;;;;;0.17;0.15;;;;;;;11.52;100.00;101690.75;4757979;30;20044;-84
2024/04/23 09:37:21;;;;;;;1.77;0.10;;;;;;;11.54;100.00;101667.66;4736988;30;20504;-86
2024/04/23 09:39:47;;;;;;;0.20;0.10;;;;;;;11.59;100.00;101662.00;4751725;30;20043;-83
2024/04/23 09:42:21;;;;;;;0.32;0.10;;;;;;;11.71;100.00;101659.31;4768325;29;20248;-84
2024/04/23 09:44:47;;;;;;;0.57;0.20;;;;;;;11.51;100.00;101665.25;4770821;29;20039;-88
2024/04/23 09:47:13;;;;;;;0.98;0.10;;;;;;;11.35;100.00;101648.88;4752556;29;20053;-84
2024/04/23 09:49:39;;;;;;;0.10;0.10;;;;;;;11.38;100.00;101646.84;4777708;29;20199;-88
2024/04/23 09:52:06;;;;;;;0.47;0.10;;;;;;;11.20;100.00;101635.00;4744831;29;20052;-82
2024/04/23 09:54:40;;;;;;;0.20;0.10;;;;;;;11.18;100.00;101645.72;4750832;30;20048;-89
2024/04/23 09:57:06;;;;;;;1.85;0.10;;;;;;;11.33;100.00;101637.56;4779934;29;20038;-87
2024/04/23 09:59:32;;;;;;;0.30;0.10;;;;;;;11.46;100.00;101640.09;4768173;30;20695;-84
2024/04/23 10:02:02;;;;;;;0.47;0.10;;;;;;;11.61;100.00;101640.69;4752523;30;20053;-87
2024/04/23 10:04:32;;;;;;;0.40;0.40;;;;;;;11.65;100.00;101642.13;4764828;30;20047;-88
2024/04/23 10:07:07;;;;;;;0.70;0.20;;;;;;;11.78;100.00;101636.69;4738637;29;20039;-90
2024/04/23 10:09:33;;;;;;;0.65;0.30;;;;;;;11.91;100.00;101626.78;4766465;30;20040;-87
2024/04/23 10:12:07;;;;;;;1.42;0.20;;;;;;;12.21;100.00;101613.00;4768497;30;20040;-86
2024/04/23 10:14:48;;;;;;;0.10;0.10;;;;;;;12.34;100.00;101612.84;4766476;30;20916;-84
2024/04/23 10:17:31;;;;;;;1.08;0.20;;;;;;;12.24;100.00;101612.75;4777246;30;20512;-82
2024/04/23 10:19:57;;;;;;;1.00;0.30;;;;;;;12.25;100.00;101607.31;4756532;30;20043;-86
2024/04/23 10:22:23;;;;;;;0.60;0.20;;;;;;;12.35;100.00;101602.13;4768489;29;20038;-86
2024/04/23 10:24:49;;;;;;;3.20;0.60;;;;;;;12.49;100.00;101605.41;4739720;30;20043;-83
2024/04/23 10:27:16;;;;;;;1.13;0.10;;;;;;;12.64;100.00;101596.19;4768138;29;20539;-87
2024/04/23 10:29:43;;;;;;;1.15;0.20;;;;;;;12.76;100.00;101599.59;4768573;30;20401;-85
2024/04/23 10:32:10;;;;;;;0.60;0.30;;;;;;;12.85;100.00;101600.63;4767464;30;20051;-84
2024/04/23 10:34:38;;;;;;;1.67;0.30;;;;;;;12.90;100.00;101601.06;4768778;30;20051;-85
2024/04/23 10:37:05;;;;;;;0.65;0.30;;;;;;;13.06;100.00;101593.63;4765944;30;20043;-87
2024/04/23 10:39:33;;;;;;;0.85;0.17;;;;;;;13.18;100.00;101594.38;4776904;29;20497;-83
2024/04/23 10:42:03;;;;;;;0.35;0.10;;;;;;;13.07;100.00;101593.50;4749947;29;20096;-82
2024/04/23 10:44:30;;;;;;;0.35;0.20;;;;;;;13.03;100.00;101587.59;4743798;29;20122;-83
2024/04/23 10:46:55;;;;;;;0.32;0.10;;;;;;;13.03;100.00;101586.75;4739640;30;20046;-84
2024/04/23 10:49:25;;;;;;;0.30;0.20;;;;;;;13.01;100.00;101588.72;4744265;29;20047;-84
2024/04/23 10:51:51;;;;;;;0.98;0.10;;;;;;;13.07;100.00;101585.53;4768340;30;20042;-83
2024/04/23 10:54:23;;;;;;;0.15;0.10;;;;;;;13.23;100.00;101589.50;4766391;30;20610;-88
2024/04/23 10:57:00;;;;;;;1.77;0.20;;;;;;;13.06;100.00;101575.88;4763326;30;20497;-90
2024/04/23 10:59:33;;;;;;;1.58;0.20;;;;;;;13.06;100.00;101577.69;4744875;30;20051;-82
2024/04/23 11:02:00;;;;;;;2.97;0.82;;;;;;;13.19;100.00;101574.78;4764739;30;20042;-85
2024/04/23 11:04:29;;;;;;;0.10;0.10;;;;;;;13.38;100.00;101572.22;4768006;30;20586;-81
2024/04/23 11:07:04;;;;;;;0.73;0.20;;;;;;;13.35;94.08;101561.03;4765880;29;20473;-80
2024/04/23 11:09:34;;;;;;;;;;;;;;;13.30;94.90;101561.44;4783176;30;20079;-80
2024/04/23 11:12:00;;;;;;;0.52;0.10;;;;;;;13.45;94.54;101556.59;4766852;29;19985;-83
2024/04/23 11:14:36;;;;;;;1.73;0.40;;;;;;;13.65;91.40;101551.34;4751987;29;20048;-83
2024/04/23 11:17:05;;;;;;;0.08;0.08;;;;;;;13.69;90.41;101555.41;4780397;30;20047;-84
2024/04/23 11:19:56;;;;;;;0.70;0.20;;;;;;;13.82;90.46;101555.16;4783395;29;20054;-87
2024/04/23 11:22:32;;;;;;;2.40;0.20;;;;;;;13.99;91.62;101537.69;4765115;30;20138;-83
2024/04/23 11:25:04;;;;;;;0.10;0.10;;;;;;;14.15;90.10;101538.94;4791120;29;20669;-86
2024/04/23 11:27:30;;;;;;;0.60;0.20;;;;;;;14.16;89.86;101534.47;4791163;29;20050;-84
2024/04/23 11:29:56;;;;;;;0.13;0.10;;;;;;;14.13;87.00;101536.41;4743317;29;20043;-83
2024/04/23 11:32:22;;;;;;;1.88;0.20;;;;;;;14.16;87.08;101540.59;4780577;30;20579;-88
2024/04/23 11:34:48;;;;;;;0.77;0.20;;;;;;;14.23;87.84;101533.75;4764893;29;20088;-87